Time;durP1;ratioP1;P1;durP2;ratioP2;P2;SDS_P1;SDS_P2;PMS_P1;PMS_P2;Temp;Humidity;BMP_temperature;BMP_pressure;BME280_temperature;BME280_humidity;BME280_pressure;Samples;Min_cycle;Max_cycle;Signal;HPM_P1;HPM_P2
2022/06/22 00:01:46;;;;;;;3.97;2.23;;;;;;;16.28;62.68;100110.56;5095765;27;20530;-59
2022/06/22 00:04:17;;;;;;;2.23;1.70;;;;;;;16.28;61.60;100110.56;5098206;28;20451;-60
2022/06/22 00:06:47;;;;;;;2.93;2.10;;;;;;;16.36;61.90;100116.72;5100256;27;20485;-59
2022/06/22 00:09:22;;;;;;;4.67;2.03;;;;;;;16.43;61.24;100113.31;5083908;28;20482;-60
2022/06/22 00:11:49;;;;;;;5.83;2.50;;;;;;;16.33;60.93;100108.97;5096461;28;20509;-60
2022/06/22 00:14:17;;;;;;;4.13;1.90;;;;;;;16.45;60.86;100106.69;5102743;28;20451;-60
2022/06/22 00:16:50;;;;;;;4.77;1.93;;;;;;;16.51;61.08;100102.44;5091398;28;20479;-59
2022/06/22 00:19:21;;;;;;;2.10;1.90;;;;;;;16.50;60.98;100107.00;5086828;28;20443;-59
2022/06/22 00:21:50;;;;;;;3.57;1.97;;;;;;;16.43;60.14;100100.66;5100517;27;20506;-60
2022/06/22 00:24:38;;;;;;;2.77;1.90;;;;;;;16.44;59.37;100094.25;5100081;28;20474;-59
2022/06/22 00:27:15;;;;;;;2.97;2.00;;;;;;;16.51;59.64;100095.19;5098733;28;20541;-59
2022/06/22 00:29:44;;;;;;;6.80;2.70;;;;;;;16.37;60.19;100096.00;5102295;28;20553;-58
2022/06/22 00:32:17;;;;;;;3.50;2.40;;;;;;;16.46;60.68;100100.28;5102188;28;20479;-59
2022/06/22 00:34:44;;;;;;;6.97;2.30;;;;;;;16.31;60.80;100107.50;5101704;28;20479;-59
2022/06/22 00:37:17;;;;;;;2.93;2.03;;;;;;;16.37;61.24;100109.50;5101925;28;20482;-59
2022/06/22 00:39:45;;;;;;;4.30;2.03;;;;;;;16.29;61.66;100113.06;5102526;28;21019;-58
2022/06/22 00:42:30;;;;;;;3.73;2.30;;;;;;;16.37;61.09;100115.72;5087700;28;20479;-59
2022/06/22 00:45:04;;;;;;;4.80;2.00;;;;;;;16.36;60.71;100114.03;5101942;28;20465;-59
2022/06/22 00:47:34;;;;;;;4.20;2.03;;;;;;;16.36;61.05;100124.81;5084492;28;20491;-59
2022/06/22 00:50:03;;;;;;;3.70;1.90;;;;;;;16.30;60.96;100112.06;5084117;28;20492;-59
2022/06/22 00:52:37;;;;;;;2.60;2.33;;;;;;;16.24;60.74;100114.66;5094791;27;20484;-59
2022/06/22 00:55:06;;;;;;;6.30;2.50;;;;;;;16.20;60.61;100116.88;5085729;28;21175;-59
2022/06/22 00:57:40;;;;;;;3.80;2.27;;;;;;;16.23;60.56;100115.66;5102249;28;20455;-60
2022/06/22 01:00:15;;;;;;;4.80;2.30;;;;;;;16.21;60.86;100112.31;5101366;27;20558;-59
2022/06/22 01:02:49;;;;;;;4.17;1.87;;;;;;;16.19;61.14;100109.78;5081243;28;20439;-59
2022/06/22 01:05:19;;;;;;;5.03;2.90;;;;;;;16.13;61.34;100095.16;5081285;28;20476;-59
2022/06/22 01:07:51;;;;;;;3.37;2.30;;;;;;;16.11;61.07;100096.34;5101344;28;20450;-59
2022/06/22 01:10:22;;;;;;;9.03;3.17;;;;;;;16.04;61.30;100082.78;5101430;27;20467;-59
2022/06/22 01:12:52;;;;;;;3.53;2.37;;;;;;;16.00;61.46;100079.59;5100352;28;20461;-59
2022/06/22 01:15:23;;;;;;;5.50;2.90;;;;;;;15.97;61.84;100084.50;5087484;28;20713;-58
2022/06/22 01:17:55;;;;;;;6.73;2.70;;;;;;;15.96;61.73;100088.22;5092805;28;20832;-58
2022/06/22 01:20:29;;;;;;;3.43;2.70;;;;;;;15.93;62.36;100081.31;5101124;28;20506;-59
2022/06/22 01:23:25;;;;;;;3.20;2.30;;;;;;;15.91;62.91;100093.31;5081274;28;20467;-59
2022/06/22 01:25:56;;;;;;;2.90;2.60;;;;;;;15.85;63.20;100085.94;5061621;28;20959;-58
2022/06/22 01:28:24;;;;;;;5.87;2.57;;;;;;;15.80;63.31;100076.53;5101631;28;20519;-59
2022/06/22 01:30:53;;;;;;;5.90;3.20;;;;;;;15.74;63.37;100079.91;5100396;27;20482;-58
2022/06/22 01:33:25;;;;;;;3.53;2.90;;;;;;;15.74;63.28;100069.13;5099467;28;20483;-59
2022/06/22 01:35:54;;;;;;;5.30;3.13;;;;;;;15.64;63.60;100073.94;5091799;28;20493;-58
2022/06/22 01:38:23;;;;;;;4.77;2.63;;;;;;;15.52;64.75;100072.63;5101292;28;20461;-59
2022/06/22 01:41:01;;;;;;;4.43;2.57;;;;;;;15.48;64.53;100064.06;5100846;28;20463;-59
2022/06/22 01:43:32;;;;;;;5.27;2.93;;;;;;;15.39;65.10;100063.25;5100881;28;20454;-59
2022/06/22 01:46:05;;;;;;;4.10;3.47;;;;;;;15.34;65.52;100072.91;5099514;28;20483;-59
2022/06/22 01:48:35;;;;;;;6.17;3.73;;;;;;;15.33;65.36;100065.81;5091338;28;20906;-59
2022/06/22 01:51:05;;;;;;;3.80;3.10;;;;;;;15.28;65.96;100068.22;5088771;28;20566;-59
2022/06/22 01:53:35;;;;;;;4.07;3.40;;;;;;;15.19;66.26;100067.41;5083152;28;20454;-59
2022/06/22 01:56:05;;;;;;;5.37;2.93;;;;;;;15.15;66.31;100060.69;5087770;28;20498;-59
2022/06/22 01:58:39;;;;;;;6.17;3.37;;;;;;;15.06;66.76;100055.34;5100788;28;20440;-59
2022/06/22 02:01:14;;;;;;;6.80;3.20;;;;;;;15.00;66.98;100047.97;5091822;28;20480;-59
2022/06/22 02:03:44;;;;;;;4.10;3.33;;;;;;;14.92;67.73;100055.25;5079789;28;20509;-59
2022/06/22 02:09:06;;;;;;;4.63;3.23;;;;;;;14.83;68.22;100059.81;5080589;28;20418;-59
2022/06/22 02:11:37;;;;;;;9.10;3.90;;;;;;;14.78;68.66;100048.72;5079489;28;20484;-59
2022/06/22 02:14:10;;;;;;;4.50;3.50;;;;;;;14.73;68.90;100046.53;5079482;28;20474;-59
2022/06/22 02:16:41;;;;;;;7.00;3.50;;;;;;;14.65;69.18;100049.25;5079601;27;20479;-59
2022/06/22 02:19:12;;;;;;;4.63;3.60;;;;;;;14.59;69.16;100049.97;5060105;28;20476;-59
2022/06/22 02:21:41;;;;;;;7.30;4.10;;;;;;;14.56;69.51;100052.94;5090290;27;20491;-60
2022/06/22 02:24:09;;;;;;;6.80;3.73;;;;;;;14.43;69.75;100064.25;5100959;28;20467;-59
2022/06/22 02:26:41;;;;;;;4.63;4.10;;;;;;;14.39;70.42;100063.75;5092620;28;20478;-60
2022/06/22 02:29:10;;;;;;;11.00;4.20;;;;;;;14.35;70.42;100059.69;5100402;28;20428;-59
2022/06/22 02:31:36;;;;;;;6.70;4.00;;;;;;;14.23;70.98;100063.75;5099732;28;20564;-60
2022/06/22 02:34:03;;;;;;;5.57;3.83;;;;;;;14.19;71.24;100060.56;5099075;28;20503;-59
2022/06/22 02:36:34;;;;;;;6.83;4.40;;;;;;;14.14;71.74;100060.22;5099603;28;20506;-60
2022/06/22 02:39:04;;;;;;;4.63;3.63;;;;;;;14.09;72.25;100049.97;5098801;28;20457;-59
2022/06/22 02:44:31;;;;;;;6.73;3.50;;;;;;;14.11;72.60;100049.81;5089836;28;20470;-60
2022/06/22 02:47:00;;;;;;;5.20;3.87;;;;;;;14.03;72.53;100031.84;5098457;28;20483;-59
2022/06/22 02:49:30;;;;;;;4.33;3.73;;;;;;;13.96;72.27;100046.09;5099478;28;20466;-59
2022/06/22 02:51:59;;;;;;;4.10;3.60;;;;;;;13.71;73.59;100059.53;5099187;28;20478;-59
2022/06/22 02:54:29;;;;;;;5.03;3.50;;;;;;;13.70;74.06;100057.84;5099973;28;20455;-59
2022/06/22 02:57:06;;;;;;;5.30;4.00;;;;;;;13.73;73.84;100049.44;5099308;28;20506;-59
2022/06/22 02:59:35;;;;;;;7.77;4.10;;;;;;;13.52;74.17;100057.97;5100418;28;20453;-59
2022/06/22 03:02:03;;;;;;;10.93;3.93;;;;;;;13.42;74.74;100068.88;5083521;28;20834;-59
2022/06/22 03:04:30;;;;;;;6.23;4.23;;;;;;;13.51;74.56;100075.94;5098943;28;20470;-59
2022/06/22 03:06:57;;;;;;;7.80;3.90;;;;;;;13.74;74.11;100065.41;5098070;28;20510;-58
2022/06/22 03:09:27;;;;;;;9.30;4.67;;;;;;;13.83;73.54;100058.19;5098179;28;20427;-58
2022/06/22 03:11:56;;;;;;;7.80;4.80;;;;;;;13.84;73.41;100051.81;5084313;27;20494;-59
2022/06/22 03:14:25;;;;;;;5.97;4.40;;;;;;;13.87;73.06;100054.19;5080922;28;21131;-59
2022/06/22 03:16:56;;;;;;;4.63;3.93;;;;;;;13.93;73.19;100036.53;5097659;27;20475;-59
2022/06/22 03:19:27;;;;;;;8.33;4.33;;;;;;;13.90;73.29;100037.69;5096098;28;20474;-59
2022/06/22 03:21:54;;;;;;;5.77;4.77;;;;;;;13.95;73.01;100042.59;5093986;28;20475;-59
2022/06/22 03:24:30;;;;;;;4.27;3.87;;;;;;;14.61;71.66;100029.09;5100373;28;20493;-59
2022/06/22 03:27:02;;;;;;;7.17;5.97;;;;;;;16.39;65.42;100037.28;5103364;28;21232;-59
2022/06/22 03:29:33;;;;;;;9.80;5.73;;;;;;;17.49;60.90;100036.47;5102194;28;20431;-59
2022/06/22 03:32:04;;;;;;;6.20;3.93;;;;;;;18.18;57.54;100042.38;5103016;27;21136;-58
2022/06/22 03:34:35;;;;;;;7.43;4.40;;;;;;;17.87;57.34;100051.66;5090373;28;20507;-59
2022/06/22 03:37:08;;;;;;;5.90;4.10;;;;;;;17.72;57.92;100054.38;5099308;28;20502;-59
2022/06/22 03:39:37;;;;;;;5.53;3.80;;;;;;;17.68;58.15;100059.34;5102766;28;20442;-58
2022/06/22 03:42:09;;;;;;;7.70;4.17;;;;;;;17.48;58.34;100056.44;5102868;28;20573;-59
2022/06/22 03:44:40;;;;;;;7.67;4.20;;;;;;;15.64;64.52;100049.69;5103418;28;20481;-60
2022/06/22 03:47:11;;;;;;;6.83;4.50;;;;;;;15.20;66.37;100044.84;5101749;28;20503;-59
2022/06/22 03:49:41;;;;;;;4.63;4.13;;;;;;;14.80;67.83;100041.31;5103028;28;20470;-59
2022/06/22 03:52:12;;;;;;;5.63;5.13;;;;;;;14.42;69.81;100030.28;5102995;28;20539;-59
2022/06/22 03:54:42;;;;;;;6.83;5.13;;;;;;;14.21;70.89;100023.59;5103133;28;20447;-58
2022/06/22 03:57:11;;;;;;;7.80;5.20;;;;;;;14.16;71.33;100025.94;5102946;28;20724;-59
2022/06/22 03:59:41;;;;;;;5.97;4.90;;;;;;;14.04;72.26;100027.28;5103727;28;20431;-59
2022/06/22 04:02:10;;;;;;;7.90;5.80;;;;;;;14.06;72.10;100027.97;5086471;28;20506;-59
2022/06/22 04:04:37;;;;;;;11.57;6.23;;;;;;;13.93;72.41;100025.78;5082709;28;20470;-59
2022/06/22 04:07:04;;;;;;;6.73;5.10;;;;;;;13.95;72.57;100023.78;5100054;28;20556;-59
2022/06/22 04:09:31;;;;;;;8.77;5.67;;;;;;;13.97;72.80;100015.53;5103046;28;20439;-61
2022/06/22 04:12:01;;;;;;;7.23;4.50;;;;;;;14.04;72.65;100019.22;5101652;28;20479;-59
2022/06/22 04:14:31;;;;;;;7.80;5.50;;;;;;;14.22;72.10;100021.75;5101273;28;20454;-59
2022/06/22 04:17:01;;;;;;;8.60;5.03;;;;;;;14.45;71.29;100029.94;5102161;28;20504;-60
2022/06/22 04:19:33;;;;;;;7.00;5.23;;;;;;;15.05;69.72;100033.97;5102446;28;20451;-60
2022/06/22 04:22:03;;;;;;;5.90;5.30;;;;;;;17.05;62.10;100033.91;5088990;28;20555;-59
2022/06/22 04:24:32;;;;;;;5.17;4.67;;;;;;;18.20;58.30;100027.63;5081951;28;20452;-59
2022/06/22 04:27:05;;;;;;;8.00;4.50;;;;;;;20.12;52.27;100047.66;5094968;28;20505;-58
2022/06/22 04:29:35;;;;;;;7.80;5.10;;;;;;;22.04;46.89;100032.78;5082125;28;20450;-58
2022/06/22 04:32:04;;;;;;;5.97;4.60;;;;;;;22.04;45.17;100030.06;5083802;28;20479;-58
2022/06/22 04:34:36;;;;;;;5.50;3.73;;;;;;;22.38;44.76;100036.94;5085125;28;20532;-59
2022/06/22 04:37:07;;;;;;;6.10;3.90;;;;;;;23.25;42.72;100041.47;5101185;27;20494;-59
2022/06/22 04:39:39;;;;;;;4.10;3.70;;;;;;;23.78;41.49;100058.19;5090522;28;20446;-59
2022/06/22 04:42:06;;;;;;;6.97;3.97;;;;;;;23.86;41.01;100052.44;5101486;27;20475;-59
2022/06/22 04:44:35;;;;;;;6.87;3.50;;;;;;;24.61;39.27;100070.13;5081883;28;20972;-60
2022/06/22 04:47:08;;;;;;;5.43;3.53;;;;;;;23.96;41.07;100062.81;5082092;28;20475;-58
2022/06/22 04:49:39;;;;;;;5.03;3.70;;;;;;;24.70;38.89;100062.41;5093900;28;20516;-58
2022/06/22 04:52:14;;;;;;;5.33;3.30;;;;;;;24.05;40.38;100069.56;5100902;28;20517;-58
2022/06/22 04:54:42;;;;;;;6.90;3.83;;;;;;;24.28;39.54;100074.25;5096819;28;20451;-59
2022/06/22 04:57:13;;;;;;;6.73;4.10;;;;;;;24.42;39.16;100072.94;5099566;28;20482;-59
2022/06/22 04:59:39;;;;;;;6.07;3.50;;;;;;;23.96;40.36;100069.09;5094241;28;20435;-59
2022/06/22 05:02:10;;;;;;;11.73;3.50;;;;;;;23.74;40.41;100063.28;5090908;27;20543;-59
2022/06/22 05:04:41;;;;;;;7.23;3.80;;;;;;;24.27;39.43;100072.59;5098780;28;20997;-58
2022/06/22 05:07:12;;;;;;;5.67;3.27;;;;;;;24.84;38.90;100077.50;5092318;28;20482;-59
2022/06/22 05:09:41;;;;;;;6.90;3.47;;;;;;;25.17;37.78;100079.59;5095220;28;20481;-60
2022/06/22 05:12:13;;;;;;;7.20;3.30;;;;;;;24.66;38.08;100075.72;5092901;28;20537;-59
2022/06/22 05:14:40;;;;;;;5.43;3.10;;;;;;;24.70;37.44;100071.44;5101026;28;20475;-60
2022/06/22 05:17:12;;;;;;;5.77;2.90;;;;;;;24.55;37.92;100069.19;5089718;27;20617;-58
2022/06/22 05:19:44;;;;;;;4.33;2.70;;;;;;;24.74;37.32;100056.25;5078792;28;20494;-59
2022/06/22 05:22:14;;;;;;;4.90;2.67;;;;;;;24.81;37.01;100069.78;5093939;28;20467;-60
2022/06/22 05:24:43;;;;;;;3.87;2.90;;;;;;;24.82;37.34;100071.44;5099906;28;20450;-61
2022/06/22 05:27:13;;;;;;;6.77;2.80;;;;;;;23.96;38.12;100066.34;5100832;28;20490;-59
2022/06/22 05:29:44;;;;;;;5.37;3.13;;;;;;;22.82;41.08;100075.06;5099903;28;20455;-60
2022/06/22 05:32:13;;;;;;;8.40;3.70;;;;;;;22.49;41.71;100078.94;5109681;28;20658;-60
2022/06/22 05:34:44;;;;;;;5.60;3.10;;;;;;;24.50;38.78;100084.63;5099304;28;20903;-60
2022/06/22 05:37:13;;;;;;;6.13;3.20;;;;;;;22.65;41.35;100076.72;5117311;28;20521;-60
2022/06/22 05:39:41;;;;;;;2.67;2.40;;;;;;;22.79;42.23;100075.53;5101080;28;20442;-59
2022/06/22 05:42:08;;;;;;;3.80;2.80;;;;;;;22.42;43.08;100075.47;5094600;28;20467;-60
2022/06/22 05:44:34;;;;;;;7.33;3.53;;;;;;;22.60;42.21;100090.19;5085264;28;20527;-60
2022/06/22 05:47:01;;;;;;;3.77;3.03;;;;;;;24.37;39.13;100089.25;5091495;28;20558;-59
2022/06/22 05:49:32;;;;;;;6.40;2.93;;;;;;;25.40;37.21;100098.94;5093828;28;20514;-59
2022/06/22 05:52:04;;;;;;;3.47;2.60;;;;;;;26.18;35.27;100097.47;5085061;28;20495;-59
2022/06/22 05:54:39;;;;;;;7.90;3.03;;;;;;;24.40;38.83;100099.69;5097520;28;20466;-59
2022/06/22 05:57:14;;;;;;;4.30;2.47;;;;;;;25.67;36.81;100105.53;5100559;28;20480;-59
2022/06/22 05:59:46;;;;;;;4.80;2.47;;;;;;;25.82;36.38;100113.22;5099882;28;20691;-60
2022/06/22 06:02:20;;;;;;;4.40;3.37;;;;;;;26.41;35.23;100101.94;5099742;28;20471;-61
2022/06/22 06:04:50;;;;;;;4.60;2.60;;;;;;;26.77;34.83;100098.94;5100017;28;20455;-60
2022/06/22 06:07:22;;;;;;;7.23;2.60;;;;;;;26.85;34.05;100091.13;5099786;28;20566;-60
2022/06/22 06:09:49;;;;;;;4.03;3.20;;;;;;;26.00;35.68;100090.28;5099317;28;20443;-60
2022/06/22 06:12:18;;;;;;;4.97;2.40;;;;;;;27.74;32.80;100086.50;5100022;28;20514;-60
2022/06/22 06:14:48;;;;;;;3.80;2.60;;;;;;;27.91;32.99;100085.56;5099496;28;20830;-59
2022/06/22 06:17:28;;;;;;;5.60;2.57;;;;;;;27.68;32.45;100093.03;5099774;28;20471;-59
2022/06/22 06:19:55;;;;;;;2.87;2.60;;;;;;;26.83;34.25;100086.97;5097949;28;20451;-59
2022/06/22 06:22:24;;;;;;;4.73;2.50;;;;;;;27.09;33.99;100090.09;5099141;28;20475;-60
2022/06/22 06:27:39;;;;;;;6.40;5.63;;;;;;;24.69;38.24;100086.19;5099095;28;20462;-59
2022/06/22 06:30:09;;;;;;;8.80;5.50;;;;;;;25.91;37.08;100086.25;5098884;28;20495;-60
2022/06/22 06:32:40;;;;;;;6.90;2.40;;;;;;;27.38;33.54;100079.78;5105922;28;20478;-60
2022/06/22 06:35:15;;;;;;;6.37;2.83;;;;;;;27.79;32.97;100093.94;5094357;28;20514;-60
2022/06/22 06:37:51;;;;;;;4.80;2.60;;;;;;;27.65;32.57;100093.53;5099340;28;20477;-59
2022/06/22 06:40:23;;;;;;;5.27;2.87;;;;;;;27.03;34.18;100095.50;5104953;28;20481;-59
2022/06/22 06:42:56;;;;;;;5.27;3.10;;;;;;;27.91;32.56;100097.41;5098629;28;20492;-59
2022/06/22 06:45:24;;;;;;;4.23;2.47;;;;;;;28.86;31.61;100098.75;5103632;28;20481;-59
2022/06/22 06:47:54;;;;;;;3.90;2.93;;;;;;;28.83;31.36;100091.03;5116466;28;20442;-60
2022/06/22 06:50:24;;;;;;;6.30;2.43;;;;;;;28.21;31.65;100093.31;5097728;28;20438;-59
2022/06/22 06:52:57;;;;;;;4.87;2.97;;;;;;;28.03;31.68;100094.50;5099325;28;20512;-60
2022/06/22 06:55:31;;;;;;;5.63;2.50;;;;;;;28.42;31.64;100096.19;5099054;28;20814;-60
2022/06/22 06:58:20;;;;;;;3.27;2.37;;;;;;;28.97;30.50;100094.13;5098273;28;20434;-60
2022/06/22 07:00:48;;;;;;;5.50;2.63;;;;;;;28.58;31.35;100106.28;5078372;28;20501;-59
2022/06/22 07:03:19;;;;;;;6.87;3.13;;;;;;;28.02;32.18;100103.84;5078619;28;20474;-60
2022/06/22 07:05:47;;;;;;;5.60;2.23;;;;;;;29.15;30.59;100118.47;5077540;28;20463;-60
2022/06/22 07:08:18;;;;;;;2.87;2.30;;;;;;;29.44;29.24;100107.03;5079499;28;20483;-60
2022/06/22 07:10:48;;;;;;;2.93;1.90;;;;;;;29.79;28.99;100103.63;5078203;28;20690;-59
2022/06/22 07:13:20;;;;;;;3.77;1.90;;;;;;;28.74;28.89;100104.47;5078394;28;20482;-59
2022/06/22 07:15:50;;;;;;;3.57;1.70;;;;;;;25.59;33.76;100110.56;5096307;28;20493;-59
2022/06/22 07:18:20;;;;;;;2.63;1.80;;;;;;;27.26;32.11;100103.75;5097859;28;20451;-59
2022/06/22 07:20:49;;;;;;;3.40;1.80;;;;;;;29.39;28.41;100107.88;5097638;28;20455;-59
2022/06/22 07:23:22;;;;;;;3.43;1.67;;;;;;;30.04;27.68;100108.34;5095113;28;20475;-59
2022/06/22 07:25:52;;;;;;;5.47;1.30;;;;;;;27.65;30.99;100095.47;5098355;28;20471;-59
2022/06/22 07:28:23;;;;;;;3.07;1.37;;;;;;;29.35;27.87;100097.66;5098487;28;20907;-60
2022/06/22 07:30:52;;;;;;;4.30;1.67;;;;;;;31.00;25.02;100105.00;5094886;28;20463;-60
2022/06/22 07:33:21;;;;;;;4.20;1.57;;;;;;;29.46;26.64;100102.94;5098239;28;20495;-58
2022/06/22 07:35:52;;;;;;;2.77;1.67;;;;;;;30.96;26.28;100101.16;5096431;28;20478;-60
2022/06/22 07:38:26;;;;;;;4.90;2.40;;;;;;;30.97;25.71;100092.59;5095347;28;20443;-59
2022/06/22 07:43:37;;;;;;;1.93;1.20;;;;;;;30.67;25.91;100090.69;5095249;28;20461;-59
2022/06/22 07:46:04;;;;;;;2.60;1.50;;;;;;;28.11;28.48;100084.97;5097277;28;20459;-59
2022/06/22 07:48:34;;;;;;;3.40;1.20;;;;;;;26.78;31.11;100085.00;5098051;28;20797;-58
2022/06/22 07:51:06;;;;;;;1.90;1.20;;;;;;;28.46;28.43;100087.16;5097238;28;20467;-59
2022/06/22 07:53:38;;;;;;;4.10;1.40;;;;;;;29.41;26.80;100077.31;5098323;28;20443;-59
2022/06/22 07:56:12;;;;;;;5.90;1.30;;;;;;;28.84;28.19;100082.50;5097725;28;20489;-59
2022/06/22 07:58:42;;;;;;;34.27;3.67;;;;;;;28.41;28.94;100089.88;5097353;28;20455;-59
2022/06/22 08:01:12;;;;;;;16.27;3.37;;;;;;;31.51;25.68;100084.69;5097897;28;20489;-60
2022/06/22 08:03:42;;;;;;;9.93;2.37;;;;;;;32.18;23.50;100085.09;5096806;28;20450;-60
2022/06/22 08:06:14;;;;;;;3.80;1.67;;;;;;;30.84;25.70;100082.09;5098103;28;20520;-59
2022/06/22 08:08:45;;;;;;;6.23;1.63;;;;;;;30.41;26.69;100082.47;5098873;28;20443;-60
2022/06/22 08:11:16;;;;;;;4.53;1.70;;;;;;;29.41;26.87;100080.88;5097354;28;20557;-60
2022/06/22 08:13:48;;;;;;;5.00;1.30;;;;;;;31.32;25.48;100081.72;5101461;28;20439;-60
2022/06/22 08:16:18;;;;;;;28.90;4.67;;;;;;;31.72;25.08;100077.94;5101298;28;20471;-60
2022/06/22 08:18:45;;;;;;;2.70;1.77;;;;;;;31.55;24.45;100082.19;5100037;28;20474;-60
2022/06/22 08:21:16;;;;;;;4.37;1.70;;;;;;;30.23;25.88;100077.47;5100658;28;20533;-60
2022/06/22 08:23:44;;;;;;;9.20;2.30;;;;;;;30.13;26.36;100080.22;5100491;28;20508;-60
2022/06/22 08:26:16;;;;;;;8.30;1.70;;;;;;;29.29;28.31;100077.53;5099517;27;20486;-60
2022/06/22 08:28:43;;;;;;;3.03;1.70;;;;;;;29.83;27.54;100073.59;5101737;28;20959;-60
2022/06/22 08:31:10;;;;;;;4.50;1.60;;;;;;;29.23;28.83;100071.16;5100574;28;20822;-61
2022/06/22 08:33:39;;;;;;;4.20;1.70;;;;;;;31.52;25.31;100065.03;5100075;28;20454;-60
2022/06/22 08:36:11;;;;;;;3.60;1.30;;;;;;;30.37;26.30;100070.31;5101040;28;20536;-59
2022/06/22 08:38:41;;;;;;;3.43;1.50;;;;;;;27.46;29.19;100070.25;5101215;28;20651;-59
2022/06/22 08:41:16;;;;;;;5.87;1.90;;;;;;;28.05;28.50;100077.75;5099479;28;20485;-59
2022/06/22 08:43:51;;;;;;;2.70;1.53;;;;;;;27.84;28.89;100068.47;5088569;28;20435;-59
2022/06/22 08:46:33;;;;;;;3.70;1.53;;;;;;;28.97;27.71;100072.13;5099798;28;20485;-59
2022/06/22 08:49:24;;;;;;;10.03;2.33;;;;;;;29.48;27.60;100073.19;5100269;28;20830;-60
2022/06/22 08:52:02;;;;;;;5.63;1.60;;;;;;;29.86;26.28;100070.28;5100650;28;20511;-59
2022/06/22 08:54:38;;;;;;;5.63;1.40;;;;;;;28.60;27.14;100073.00;5101347;28;20478;-59
2022/06/22 08:57:11;;;;;;;3.80;1.30;;;;;;;27.60;29.73;100071.50;5099664;28;20561;-59
2022/06/22 08:59:59;;;;;;;6.73;1.80;;;;;;;26.08;31.71;100075.38;5100353;28;20447;-59
2022/06/22 09:02:59;;;;;;;6.77;1.30;;;;;;;26.47;31.37;100064.47;5097409;27;20816;-59
2022/06/22 09:05:39;;;;;;;4.00;1.67;;;;;;;25.30;33.51;100069.50;5079357;28;20451;-60
2022/06/22 09:08:19;;;;;;;5.10;1.70;;;;;;;26.66;31.86;100070.56;5100992;28;20442;-60
2022/06/22 09:11:01;;;;;;;3.40;1.40;;;;;;;25.95;31.64;100070.19;5099852;28;20561;-58
2022/06/22 09:14:07;;;;;;;2.97;1.20;;;;;;;26.44;30.86;100063.06;5100388;28;20491;-60
2022/06/22 09:16:45;;;;;;;3.57;1.60;;;;;;;26.72;30.84;100064.06;5055973;28;20541;-59
2022/06/22 09:19:29;;;;;;;5.27;1.30;;;;;;;26.66;30.99;100067.81;5079400;28;20469;-59
2022/06/22 09:22:05;;;;;;;4.37;1.60;;;;;;;27.83;28.99;100077.78;5090891;28;20521;-59
2022/06/22 09:24:40;;;;;;;7.17;1.77;;;;;;;26.80;29.99;100074.59;5099931;28;20442;-59
2022/06/22 09:27:14;;;;;;;3.73;1.43;;;;;;;27.84;28.75;100082.19;5100617;28;20537;-59
2022/06/22 09:30:05;;;;;;;3.70;1.30;;;;;;;28.36;27.62;100081.59;5101093;28;20510;-59
2022/06/22 09:33:13;;;;;;;3.37;1.67;;;;;;;27.91;29.73;100082.81;5099382;28;20491;-59
2022/06/22 09:36:05;;;;;;;3.50;1.73;;;;;;;26.26;29.70;100090.72;5099656;28;20531;-59
2022/06/22 09:39:00;;;;;;;4.63;1.60;;;;;;;28.33;27.51;100091.22;5100963;28;20443;-59
2022/06/22 09:41:34;;;;;;;6.30;1.67;;;;;;;27.28;28.97;100088.72;5080387;28;20953;-59
2022/06/22 09:44:15;;;;;;;5.37;1.57;;;;;;;26.20;30.38;100095.31;5100067;28;20515;-59
2022/06/22 09:47:06;;;;;;;5.47;1.50;;;;;;;26.23;31.80;100086.59;5099191;28;20506;-59
2022/06/22 09:50:08;;;;;;;3.57;1.90;;;;;;;27.57;28.42;100083.03;5100082;28;20459;-59
2022/06/22 09:52:51;;;;;;;3.57;1.40;;;;;;;27.36;29.99;100082.78;5113584;28;20482;-59
2022/06/22 09:58:33;;;;;;;3.27;1.77;;;;;;;27.66;29.20;100072.41;5120728;28;20874;-58
2022/06/22 10:01:08;;;;;;;4.00;1.50;;;;;;;29.52;26.89;100073.47;5120045;28;20469;-59
2022/06/22 10:04:39;;;;;;;3.03;1.30;;;;;;;30.69;25.35;100076.63;5118410;28;20445;-59
2022/06/22 10:07:21;;;;;;;3.93;1.60;;;;;;;27.70;27.48;100079.84;5120405;28;20504;-59
2022/06/22 10:10:02;;;;;;;5.13;1.50;;;;;;;28.72;27.67;100082.72;5114206;28;20481;-59
2022/06/22 10:12:56;;;;;;;6.57;1.70;;;;;;;30.53;25.05;100084.09;5098891;28;20564;-59
2022/06/22 10:15:40;;;;;;;6.60;1.63;;;;;;;30.02;25.57;100094.00;5098580;28;20642;-59
2022/06/22 10:18:21;;;;;;;3.20;1.57;;;;;;;29.62;26.19;100087.28;5099831;28;20457;-59
2022/06/22 10:21:04;;;;;;;3.70;1.30;;;;;;;30.22;25.35;100097.88;5099116;28;20471;-59
2022/06/22 10:23:43;;;;;;;3.77;1.73;;;;;;;27.83;28.93;100099.75;5098742;28;20443;-59
2022/06/22 10:26:20;;;;;;;2.40;1.67;;;;;;;29.06;27.56;100095.28;5098722;28;20478;-59
2022/06/22 10:29:15;;;;;;;3.00;1.60;;;;;;;29.39;26.64;100107.03;5100315;28;20426;-59
2022/06/22 10:31:52;;;;;;;3.77;1.87;;;;;;;29.35;26.36;100108.66;5098167;28;20510;-59
2022/06/22 10:34:28;;;;;;;3.03;1.60;;;;;;;30.06;26.17;100110.81;5097730;28;20504;-59
2022/06/22 10:37:15;;;;;;;4.37;1.90;;;;;;;30.80;24.66;100111.38;5099525;28;20474;-59
2022/06/22 10:45:08;;;;;;;2.93;1.60;;;;;;;31.10;24.47;100113.25;5098723;28;20451;-59
2022/06/22 10:45:57;;;;;;;5.17;1.60;;;;;;;29.22;27.59;100094.31;5098050;28;20657;-60
2022/06/22 10:48:38;;;;;;;2.70;1.37;;;;;;;29.73;25.38;100112.94;5096991;28;20483;-59
2022/06/22 10:51:13;;;;;;;4.60;1.30;;;;;;;27.29;28.12;100103.25;5100295;28;20467;-60
2022/06/22 10:54:07;;;;;;;3.00;1.50;;;;;;;28.11;28.15;100104.22;5095706;28;20551;-58
2022/06/22 10:56:45;;;;;;;2.80;1.50;;;;;;;29.44;26.10;100105.13;5096376;28;20524;-58
2022/06/22 10:59:40;;;;;;;2.57;1.10;;;;;;;28.11;26.26;100110.53;5076743;28;20531;-58
2022/06/22 11:02:51;;;;;;;3.83;1.40;;;;;;;28.62;25.75;100104.63;5079270;28;20471;-59
2022/06/22 11:05:37;;;;;;;1.73;1.30;;;;;;;28.68;26.55;100102.78;5072305;28;21119;-59
2022/06/22 11:08:20;;;;;;;5.00;1.60;;;;;;;29.88;25.96;100087.38;5099695;28;20431;-58
2022/06/22 11:11:03;;;;;;;4.27;1.60;;;;;;;30.37;24.75;100091.56;5098174;28;20467;-58
2022/06/22 11:13:51;;;;;;;3.63;1.43;;;;;;;31.11;25.55;100089.22;5099366;28;20482;-58
2022/06/22 11:16:34;;;;;;;4.17;1.70;;;;;;;29.63;25.31;100083.44;5097682;28;20865;-59
2022/06/22 11:19:36;;;;;;;2.70;1.20;;;;;;;31.16;22.98;100072.66;5098608;28;21015;-59
2022/06/22 11:22:16;;;;;;;4.60;1.37;;;;;;;29.71;25.97;100084.00;5099078;28;20470;-58
2022/06/22 11:31:07;;;;;;;3.80;1.57;;;;;;;27.54;27.14;100069.81;5015312;28;21152;-59
2022/06/22 11:33:51;;;;;;;5.83;1.73;;;;;;;27.65;26.80;100068.81;5084492;28;20494;-58
2022/06/22 11:36:26;;;;;;;3.63;1.20;;;;;;;28.74;25.06;100064.00;5098785;28;20474;-59
2022/06/22 11:39:11;;;;;;;4.63;1.47;;;;;;;28.82;24.12;100078.34;5097744;28;20450;-59
2022/06/22 11:41:56;;;;;;;2.20;1.13;;;;;;;29.01;23.86;100073.22;5098316;28;20467;-59
2022/06/22 11:48:18;;;;;;;4.33;1.20;;;;;;;28.49;23.83;100066.59;5097176;28;20481;-59
2022/06/22 11:50:56;;;;;;;3.87;1.33;;;;;;;29.27;23.88;100076.97;5082683;27;20908;-59
2022/06/22 11:53:36;;;;;;;2.10;1.07;;;;;;;29.73;22.90;100082.63;5102061;28;21191;-59
2022/06/22 11:56:13;;;;;;;7.60;1.40;;;;;;;29.04;22.37;100065.28;5102372;27;20466;-59
2022/06/22 11:59:02;;;;;;;2.97;1.20;;;;;;;28.69;22.91;100058.47;5102467;28;20431;-59
2022/06/22 12:01:53;;;;;;;2.27;1.53;;;;;;;28.57;24.30;100051.53;5101430;27;20470;-59
2022/06/22 12:04:55;;;;;;;5.13;1.80;;;;;;;28.71;25.09;100052.72;5101765;28;20604;-59
2022/06/22 12:07:39;;;;;;;5.60;1.83;;;;;;;28.65;24.81;100056.53;5100484;27;20470;-59
2022/06/22 12:10:18;;;;;;;2.70;1.30;;;;;;;28.42;24.90;100054.97;5102339;28;20450;-60
2022/06/22 12:12:58;;;;;;;3.13;1.60;;;;;;;27.67;25.92;100049.34;5099344;28;20483;-59
2022/06/22 12:15:35;;;;;;;1.80;1.10;;;;;;;27.05;25.57;100049.44;5100855;27;20447;-59
2022/06/22 12:18:12;;;;;;;5.10;1.67;;;;;;;26.44;27.39;100052.13;5102802;28;20431;-59
2022/06/22 12:21:08;;;;;;;2.63;1.07;;;;;;;27.01;27.04;100052.94;5101291;27;20535;-59
2022/06/22 12:23:44;;;;;;;6.20;1.37;;;;;;;27.32;25.67;100047.84;5101237;28;20443;-59
2022/06/22 12:26:27;;;;;;;2.50;1.33;;;;;;;27.55;25.82;100043.97;5101398;27;20500;-59